Santa Maria, Argentina
Current Conditions -  °F | °C
As of 1:00 PM on Friday 31 Oct 2014 (Local Time) from SAZM Reporting Station
Broken Clouds Broken Clouds  
Wind Chill: 61°   Ceiling: 10000
Heat Index: 61°   Visibility: 6mi
Dew Point: 37°   Wind: 13mph
Humidity: 42%   Direction: 140°SE
Pressure: 30.06"   Gusts: NA
Location:  37.57°S, 61.87°W
Report Text: SAZM 311600Z 14011KT 9999 FEW032 BKN10016/03 Q1018
Loading
Personal Weather Stations






























Interactive Weather Map
Tropical Storm Tracking
New forecast layout! Learn more

10-Day Weather Forecast

Advertisements
Track Severe Weather on mobile